NCAR-RAP Real-Time Weather Data

Output produced by METARs form (08 May 2021  15:42 UTC)
found at http://weather.rap.ucar.edu/surface/
 
KICT 081453Z 17017G23KT 10SM FEW120 FEW150 FEW180 22/14 A2973 RMK AO2 SLP058 T02170139 58015
KICT 081353Z 15015KT 10SM FEW120 19/13 A2976 RMK AO2 SLP068 ACC DSNT SE-SW T01890128
KICT 081253Z 13012KT 10SM FEW180 FEW220 16/12 A2978 RMK AO2 SLP074 T01610117
KICT 081153Z 11012KT 10SM FEW180 SCT220 15/11 A2978 RMK AO2 SLP075 T01500111 10161 20139 50001
KICT 081053Z 09010KT 10SM SCT220 14/11 A2978 RMK AO2 SLP074 T01440106
KICT 080953Z COR 13007KT 10SM SCT220 14/11 A2978 RMK AO2 SLP074 T01440106
KICT 080853Z 16009KT 10SM BKN220 15/10 A2978 RMK AO2 SLP072 T01500100 56027
KICT 080753Z 15010KT 10SM BKN220 16/09 A2978 RMK AO2 SLP075 T01560094
KICT 080653Z 14008KT 10SM BKN250 15/08 A2982 RMK AO2 SLP090 T01500083
KICT 080553Z 15012KT 10SM BKN250 16/08 A2986 RMK AO2 SLP102 T01610078 10244 20161 402610089 58010
KICT 080453Z 13010G20KT 10SM BKN250 17/07 A2987 RMK AO2 SLP107 T01670072
KICT 080353Z 13013KT 10SM BKN250 17/07 A2990 RMK AO2 SLP116 T01720072
KICT 080253Z 14014KT 10SM BKN250 18/07 A2989 RMK AO2 SLP114 T01830067 53000
KICT 080153Z 13014KT 10SM SCT250 20/08 A2987 RMK AO2 SLP108 T02000078
KICT 080053Z 13010KT 10SM SCT250 22/10 A2987 RMK AO2 SLP107 T02220100
KICT 072353Z 15016G22KT 10SM FEW060 SCT250 24/10 A2989 RMK AO2 SLP115 T02390100 10261 20228 56028
KICT 072253Z 15016G24KT 10SM SCT065 SCT250 25/11 A2991 RMK AO2 SLP121 T02500106
KICT 072153Z 14017G24KT 10SM BKN065 24/10 A2994 RMK AO2 PK WND 17026/2059 SLP131 T02440100
KICT 072053Z 17018G28KT 10SM SCT065 SCT250 26/10 A2998 RMK AO2 PK WND 17029/1954 SLP143 T02610100 56027
KICT 071953Z 17017G28KT 10SM FEW075 FEW120 FEW180 25/09 A2999 RMK AO2 PK WND 17030/1904 SLP149 T02500089
KICT 071853Z 15021G28KT 10SM FEW075 FEW120 SCT180 24/08 A3003 RMK AO2 PK WND 16033/1840 SLP160 T02390078
KICT 071753Z 14017G27KT 10SM FEW075 FEW090 SCT120 SCT180 23/07 A3006 RMK AO2 PK WND 14031/1743 SLP172 SHRA MOVD E T02330067 10233 20100 58028
KICT 071653Z 15015G24KT 10SM FEW075 SCT090 SCT120 SCT180 21/04 A3011 RMK AO2 SLP190 SHRA DSNT NE-SE MOVG SE T02110044
KICT 071553Z 17013G23KT 10SM FEW075 SCT090 BKN120 BKN150 19/04 A3012 RMK AO2 SLP196 SHRA DSNT NW-NE MOVG SE T01940044
KICT 071453Z 15014KT 10SM SCT065 SCT085 BKN100 BKN140 BKN220 18/04 A3015 RMK AO2 SLP203 SHRA DSNT S-SW AND NW-N MOVG SE T01780039 58005
KICT 071353Z 18010KT 10SM FEW085 SCT100 SCT130 SCT220 14/05 A3017 RMK AO2 SLP212 ACC W-NW-N T01440050
KICT 071253Z 17009KT 10SM SCT085 SCT100 SCT130 SCT220 12/04 A3017 RMK AO2 SLP214 T01170044
KICT 071153Z 18006KT 10SM SCT075 BKN095 BKN150 BKN220 10/04 A3017 RMK AO2 RAB15E32 TSE43 SLP211 TS MOVD E AND DISPTD P0000 60000 T01000044 10122 20089 56005
KICT 071144Z 16006KT 10SM SCT075 BKN095 BKN150 BKN220 11/04 A3016 RMK AO2 RAB15E32 TSE43 TS MOVD E AND DISPTD P0000 T01060039
KICT 071053Z 18007KT 10SM TS SCT075CB BKN100 OVC120 10/02 A3017 RMK AO2 RAB31E41 TSB44 SLP212 OCNL LTGICCC VC W-NW TS VC W-NW MOV E P0000 T01000022
KICT 071045Z 19004KT 10SM TS SCT075CB BKN100 OVC120 11/02 A3017 RMK AO2 RAB31E41 TSB44 OCNL LTGICCC VC W-NW TS VC W-NW MOV E P0000 T01060022
KICT 070953Z 16004KT 10SM BKN090 BKN110 BKN250 09/02 A3017 RMK AO2 SLP214 T00940017
KICT 070853Z 18004KT 10SM BKN100 BKN250 09/02 A3018 RMK AO2 SLP216 T00940017 56010
KICT 070753Z COR 17005KT 10SM BKN100 BKN250 10/02 A3018 RMK AO2 SLP216 T01000017
KICT 070653Z 12008KT 10SM SCT110 SCT250 11/00 A3019 RMK AO2 SLP220 T01110000
KICT 070553Z 11009KT 10SM FEW250 12/00 A3021 RMK AO2 SLP226 T01220000 10200 20117 402110072 58008
KICT 070453Z 09007KT 10SM CLR 12/01 A3021 RMK AO2 SLP227 T01170011
KICT 070353Z 09006KT 10SM CLR 13/02 A3023 RMK AO2 SLP235 T01280017
KICT 070253Z 06005KT 10SM CLR 16/01 A3024 RMK AO2 SLP235 T01560006 53007
KICT 070153Z 04005KT 10SM CLR 17/01 A3022 RMK AO2 SLP230 T01670011
KICT 070053Z 03007KT 10SM FEW100 18/02 A3021 RMK AO2 SLP226 T01830017
KICT 062353Z 03008KT 10SM FEW100 FEW200 20/02 A3021 RMK AO2 SLP228 T02000017 10211 20183 56017
KICT 062253Z 01010G19KT 10SM FEW100 FEW150 FEW190 21/02 A3022 RMK AO2 SLP230 T02060017
KICT 062153Z 02011KT 330V050 10SM SCT100 SCT150 21/03 A3023 RMK AO2 SLP234 T02110028
KICT 062053Z 36008G17KT 10SM FEW100 FEW150 FEW180 21/03 A3027 RMK AO2 SLP245 T02060028 58016
KICT 061953Z 01009G17KT 10SM FEW080 SCT200 21/04 A3028 RMK AO2 SLP253 T02060039
KICT 061853Z 34010G17KT 10SM FEW080 20/04 A3031 RMK AO2 SLP260 T02000039
KICT 061753Z 02013KT 10SM SCT100 19/04 A3032 RMK AO2 SLP262 T01890039 10189 20100 50000
KICT 061653Z 34013G19KT 10SM FEW080 FEW200 18/06 A3032 RMK AO2 SLP265 T01780061
KICT 061553Z 35012KT 10SM FEW200 16/06 A3033 RMK AO2 SLP268 T01610061